Time;durP1;ratioP1;P1;durP2;ratioP2;P2;SDS_P1;SDS_P2;PMS_P1;PMS_P2;Temp;Humidity;BMP_temperature;BMP_pressure;BME280_temperature;BME280_humidity;BME280_pressure;Samples;Min_cycle;Max_cycle;Signal;HPM_P1;HPM_P2
2023/08/25 00:01:28;;;;;;;11.95;10.13;;;;;;;20.95;100.00;100883.56;5037912;28;20041;-64
2023/08/25 00:03:54;;;;;;;11.32;10.07;;;;;;;20.96;100.00;100879.88;5025820;28;20107;-64
2023/08/25 00:06:21;;;;;;;12.40;11.05;;;;;;;20.91;100.00;100882.34;5026427;28;20422;-65
2023/08/25 00:08:48;;;;;;;14.98;10.95;;;;;;;20.92;100.00;100879.47;5039394;28;20420;-64
2023/08/25 00:11:14;;;;;;;11.93;10.32;;;;;;;20.94;100.00;100873.94;5024975;28;20127;-65
2023/08/25 00:13:41;;;;;;;14.48;10.65;;;;;;;20.95;100.00;100875.56;5040023;28;20108;-65
2023/08/25 00:16:09;;;;;;;11.20;10.00;;;;;;;20.93;100.00;100867.81;5024191;28;20951;-64
2023/08/25 00:18:36;;;;;;;14.93;10.40;;;;;;;20.91;100.00;100869.03;5026858;28;20053;-64
2023/08/25 00:21:02;;;;;;;13.95;11.05;;;;;;;20.87;100.00;100868.63;5035416;28;20088;-65
2023/08/25 00:23:29;;;;;;;14.95;11.13;;;;;;;20.82;100.00;100865.81;5025465;28;20132;-65
2023/08/25 00:25:55;;;;;;;12.38;10.90;;;;;;;20.73;100.00;100869.72;5029973;28;20053;-64
2023/08/25 00:28:22;;;;;;;13.50;11.70;;;;;;;20.67;100.00;100883.91;5038913;28;20053;-65
2023/08/25 00:30:48;;;;;;;14.68;13.10;;;;;;;20.63;100.00;100878.19;5041011;28;20050;-65
2023/08/25 00:33:15;;;;;;;15.38;11.50;;;;;;;20.65;100.00;100881.47;5029187;28;20050;-64
2023/08/25 00:35:42;;;;;;;12.75;11.40;;;;;;;20.69;100.00;100892.50;5032114;28;20099;-64
2023/08/25 00:38:09;;;;;;;15.10;12.67;;;;;;;20.65;100.00;100877.97;5037420;28;20076;-65
2023/08/25 00:40:36;;;;;;;12.45;11.23;;;;;;;20.65;100.00;100880.66;5037947;28;20068;-64
2023/08/25 00:43:03;;;;;;;18.00;14.95;;;;;;;20.64;100.00;100877.16;5043811;28;20483;-65
2023/08/25 00:45:35;;;;;;;15.10;13.48;;;;;;;20.66;100.00;100884.94;5024614;28;20053;-65
2023/08/25 00:48:02;;;;;;;19.50;16.63;;;;;;;20.67;100.00;100890.06;5039508;28;20643;-65
2023/08/25 00:50:29;;;;;;;18.60;15.82;;;;;;;20.67;100.00;100884.72;5020009;28;20164;-64
2023/08/25 00:52:57;;;;;;;14.53;12.77;;;;;;;20.68;100.00;100885.53;5034489;28;20052;-65
2023/08/25 00:55:23;;;;;;;13.45;12.05;;;;;;;20.63;100.00;100875.53;5037824;28;20501;-64
2023/08/25 00:57:51;;;;;;;15.68;12.55;;;;;;;20.58;100.00;100880.66;5032807;28;20063;-65
2023/08/25 01:00:18;;;;;;;13.75;12.45;;;;;;;20.57;100.00;100883.53;5036449;28;20133;-66
2023/08/25 01:02:45;;;;;;;13.15;11.85;;;;;;;20.50;100.00;100879.03;5023191;28;20100;-65
2023/08/25 01:05:11;;;;;;;12.95;11.57;;;;;;;20.48;100.00;100877.59;5030434;28;20064;-64
2023/08/25 01:07:38;;;;;;;18.27;13.63;;;;;;;20.40;100.00;100883.97;5032869;28;20060;-64
2023/08/25 01:10:05;;;;;;;17.00;11.95;;;;;;;20.43;100.00;100880.91;5048550;28;20056;-64
2023/08/25 01:12:40;;;;;;;14.38;12.07;;;;;;;20.44;100.00;100879.03;5035212;28;20080;-64
2023/08/25 01:15:16;;;;;;;14.90;13.40;;;;;;;20.44;100.00;100885.19;5029225;28;20095;-64
2023/08/25 01:18:05;;;;;;;17.83;13.60;;;;;;;20.45;100.00;100881.50;5033803;28;20081;-64
2023/08/25 01:20:32;;;;;;;17.25;15.18;;;;;;;20.35;100.00;100881.13;5017929;28;20587;-64
2023/08/25 01:23:22;;;;;;;18.30;14.65;;;;;;;20.28;100.00;100875.81;5032138;28;20038;-64
2023/08/25 01:25:51;;;;;;;18.58;16.77;;;;;;;20.22;100.00;100876.66;5031608;28;20128;-65
2023/08/25 01:28:19;;;;;;;18.67;16.52;;;;;;;20.21;100.00;100876.84;5025194;28;20045;-64
2023/08/25 01:30:49;;;;;;;21.75;18.45;;;;;;;20.12;100.00;100876.28;5015830;28;20099;-64
2023/08/25 01:33:16;;;;;;;19.42;17.42;;;;;;;20.14;100.00;100875.03;5029698;28;20606;-64
2023/08/25 01:36:16;;;;;;;18.57;16.57;;;;;;;20.21;100.00;100876.84;5024687;28;20509;-64
2023/08/25 01:39:07;;;;;;;19.48;16.95;;;;;;;20.22;100.00;100873.97;5031871;28;20044;-64
2023/08/25 01:41:42;;;;;;;18.48;16.67;;;;;;;20.26;100.00;100867.22;5042437;28;20088;-64
2023/08/25 01:44:11;;;;;;;19.55;16.20;;;;;;;20.27;100.00;100862.72;5019742;28;21133;-64
2023/08/25 01:46:42;;;;;;;18.08;16.20;;;;;;;20.30;100.00;100856.97;5039253;28;20085;-64
2023/08/25 01:49:09;;;;;;;16.65;14.90;;;;;;;20.30;100.00;100860.44;5021228;28;20111;-64
2023/08/25 01:51:37;;;;;;;17.15;14.90;;;;;;;20.31;100.00;100858.63;5022331;28;20052;-64
2023/08/25 01:54:04;;;;;;;16.80;14.55;;;;;;;20.33;100.00;100865.34;5032446;28;20052;-64
2023/08/25 01:56:30;;;;;;;17.90;15.52;;;;;;;20.35;100.00;100854.50;5034726;28;20095;-64
2023/08/25 01:58:56;;;;;;;20.33;16.40;;;;;;;20.39;100.00;100850.38;5029302;28;20485;-64
2023/08/25 02:01:23;;;;;;;20.50;17.50;;;;;;;20.38;100.00;100851.41;5027709;28;20135;-64
2023/08/25 02:03:49;;;;;;;18.48;16.42;;;;;;;20.36;100.00;100845.47;5043041;28;20049;-64
2023/08/25 02:06:16;;;;;;;18.48;15.93;;;;;;;20.43;100.00;100842.78;5036707;28;20508;-64
2023/08/25 02:08:42;;;;;;;18.65;16.92;;;;;;;20.48;100.00;100857.13;5043098;28;20088;-64
2023/08/25 02:11:09;;;;;;;19.17;17.27;;;;;;;20.52;100.00;100846.84;5029188;28;20053;-64
2023/08/25 02:13:35;;;;;;;18.45;16.42;;;;;;;20.52;100.00;100847.66;5030085;28;20477;-64
2023/08/25 02:16:02;;;;;;;19.83;17.83;;;;;;;20.52;100.00;100853.00;5040119;28;20092;-64
2023/08/25 02:18:29;;;;;;;19.77;17.77;;;;;;;20.54;100.00;100847.44;5021180;28;20064;-64
2023/08/25 02:20:58;;;;;;;20.23;18.02;;;;;;;20.59;100.00;100857.47;5034761;28;20055;-64
2023/08/25 02:23:24;;;;;;;24.40;19.27;;;;;;;20.61;100.00;100847.47;5016477;28;20052;-64
2023/08/25 02:25:51;;;;;;;20.67;18.58;;;;;;;20.62;100.00;100849.06;5020839;28;20758;-64
2023/08/25 02:28:18;;;;;;;21.58;19.33;;;;;;;20.66;100.00;100850.28;5025723;28;20049;-64
2023/08/25 02:30:44;;;;;;;20.83;18.60;;;;;;;20.67;100.00;100849.25;5043842;28;20089;-63
2023/08/25 02:33:12;;;;;;;25.90;19.02;;;;;;;20.71;100.00;100840.63;5045449;28;20040;-64
2023/08/25 02:35:39;;;;;;;23.02;19.77;;;;;;;20.74;100.00;100840.22;5023984;28;20049;-64
2023/08/25 02:38:07;;;;;;;24.33;20.10;;;;;;;20.76;100.00;100836.50;5042289;28;20072;-64
2023/08/25 02:40:34;;;;;;;20.80;18.60;;;;;;;20.79;100.00;100825.41;5034511;28;20061;-64
2023/08/25 02:43:04;;;;;;;22.35;18.60;;;;;;;20.80;100.00;100825.22;5038312;28;20057;-64
2023/08/25 02:45:32;;;;;;;21.45;18.67;;;;;;;20.84;100.00;100821.09;5039563;28;20102;-64
2023/08/25 02:47:58;;;;;;;21.48;19.33;;;;;;;20.83;100.00;100814.09;5033967;28;20513;-64
2023/08/25 02:50:25;;;;;;;23.38;18.98;;;;;;;20.84;100.00;100813.09;5034736;28;20128;-64
2023/08/25 02:52:52;;;;;;;20.98;18.77;;;;;;;20.86;100.00;100812.88;5026719;28;20582;-64
2023/08/25 02:55:21;;;;;;;21.77;19.67;;;;;;;20.89;100.00;100815.09;5021819;28;20080;-65
2023/08/25 02:57:49;;;;;;;23.20;19.35;;;;;;;20.91;100.00;100808.53;5027245;28;20496;-64
2023/08/25 03:00:20;;;;;;;24.05;20.77;;;;;;;20.93;100.00;100805.63;5041863;28;20395;-64
2023/08/25 03:02:48;;;;;;;21.83;19.52;;;;;;;20.93;100.00;100795.81;5038659;28;20048;-64
2023/08/25 03:05:15;;;;;;;;;;;;;;;20.98;100.00;100800.50;5032912;28;20500;-64
2023/08/25 03:07:42;;;;;;;26.33;18.83;;;;;;;21.00;100.00;100798.41;5031078;28;19979;-64
2023/08/25 03:10:09;;;;;;;21.13;18.92;;;;;;;21.00;100.00;100795.75;5037173;28;20406;-64
2023/08/25 03:12:36;;;;;;;22.80;20.30;;;;;;;21.00;100.00;100790.41;5032371;28;20107;-64
2023/08/25 03:15:03;;;;;;;23.38;19.15;;;;;;;20.99;100.00;100788.78;5036339;28;20576;-64
2023/08/25 03:17:30;;;;;;;22.98;20.40;;;;;;;20.97;100.00;100788.16;5033857;28;20593;-63
2023/08/25 03:19:56;;;;;;;22.15;19.80;;;;;;;20.96;100.00;100778.56;5027969;28;20059;-64
2023/08/25 03:22:23;;;;;;;25.58;19.63;;;;;;;20.95;100.00;100774.25;5040661;28;20048;-64
2023/08/25 03:24:49;;;;;;;24.83;19.45;;;;;;;20.96;100.00;100772.41;5033943;28;20057;-64
2023/08/25 03:27:16;;;;;;;22.42;18.88;;;;;;;20.95;100.00;100768.91;5032537;28;20049;-64
2023/08/25 03:29:42;;;;;;;23.50;18.92;;;;;;;20.95;100.00;100766.25;5039302;28;20059;-64
2023/08/25 03:32:09;;;;;;;20.40;18.00;;;;;;;20.94;100.00;100757.44;5033507;28;20076;-64
2023/08/25 03:34:35;;;;;;;24.23;18.75;;;;;;;20.95;100.00;100763.56;5032761;28;20403;-63
2023/08/25 03:37:03;;;;;;;26.15;20.55;;;;;;;20.91;100.00;100757.06;5021372;28;20055;-65
2023/08/25 03:39:30;;;;;;;23.52;20.00;;;;;;;20.92;100.00;100764.03;5040824;28;20049;-63
2023/08/25 03:41:56;;;;;;;24.13;19.88;;;;;;;20.94;100.00;100754.78;5023456;28;20135;-63
2023/08/25 03:44:23;;;;;;;21.88;19.33;;;;;;;20.98;100.00;100762.34;5027576;28;20046;-64
2023/08/25 03:46:49;;;;;;;25.13;19.38;;;;;;;20.95;100.00;100752.91;5044430;28;20074;-64
2023/08/25 03:49:16;;;;;;;23.10;19.92;;;;;;;20.96;100.00;100751.91;5031530;28;20110;-63
2023/08/25 03:51:42;;;;;;;23.90;20.42;;;;;;;20.94;100.00;100757.44;5044715;28;20234;-64
2023/08/25 03:54:10;;;;;;;25.85;20.33;;;;;;;20.92;100.00;100751.50;5026566;28;20684;-63
2023/08/25 03:56:38;;;;;;;24.60;21.55;;;;;;;20.95;100.00;100739.59;5044880;28;20060;-64
2023/08/25 03:59:04;;;;;;;29.27;22.27;;;;;;;20.99;100.00;100747.97;5038417;28;20052;-65
2023/08/25 04:01:31;;;;;;;25.85;21.30;;;;;;;21.03;100.00;100743.84;5024433;28;20525;-65
2023/08/25 04:04:01;;;;;;;25.77;21.15;;;;;;;21.02;100.00;100743.03;5040127;28;20053;-63
2023/08/25 04:06:27;;;;;;;25.08;20.20;;;;;;;21.02;100.00;100745.69;5031779;28;20053;-64
2023/08/25 04:08:54;;;;;;;23.98;21.02;;;;;;;21.02;100.00;100743.03;5041369;28;20224;-64
2023/08/25 04:11:20;;;;;;;23.05;20.42;;;;;;;21.04;100.00;100740.97;5028518;28;20048;-64
2023/08/25 04:13:47;;;;;;;24.25;20.17;;;;;;;21.04;100.00;100743.63;5037182;28;20081;-64
2023/08/25 04:16:13;;;;;;;22.10;18.25;;;;;;;21.04;100.00;100737.47;5036484;28;20049;-65
2023/08/25 04:18:40;;;;;;;25.08;20.27;;;;;;;21.06;100.00;100735.41;5028752;28;20124;-65
2023/08/25 04:21:06;;;;;;;23.33;19.88;;;;;;;21.08;100.00;100730.69;5040253;28;20107;-65
2023/08/25 04:23:35;;;;;;;23.17;20.88;;;;;;;21.06;100.00;100732.75;5026944;28;20046;-64
2023/08/25 04:26:02;;;;;;;24.88;21.42;;;;;;;21.05;100.00;100728.44;5031441;28;20048;-63
2023/08/25 04:28:28;;;;;;;28.55;24.23;;;;;;;21.06;100.00;100730.06;5023553;28;20414;-64
2023/08/25 04:30:55;;;;;;;26.83;23.55;;;;;;;21.06;100.00;100728.22;5018905;28;20053;-64
2023/08/25 04:33:21;;;;;;;27.70;21.83;;;;;;;21.06;100.00;100735.41;5027966;28;20104;-64
2023/08/25 04:35:48;;;;;;;26.38;21.70;;;;;;;21.06;100.00;100724.75;5023547;28;20045;-64
2023/08/25 04:38:14;;;;;;;25.17;22.55;;;;;;;21.05;100.00;100734.59;5023789;28;20045;-64
2023/08/25 04:40:42;;;;;;;28.58;23.90;;;;;;;21.06;100.00;100728.22;5015795;28;20086;-64
2023/08/25 04:43:08;;;;;;;26.77;22.73;;;;;;;21.07;100.00;100729.03;5025123;28;20053;-64
2023/08/25 04:45:35;;;;;;;26.35;21.90;;;;;;;21.08;100.00;100722.66;5038756;28;20045;-65
2023/08/25 04:48:02;;;;;;;26.48;22.88;;;;;;;21.06;100.00;100728.22;5040615;28;20114;-64
2023/08/25 04:50:28;;;;;;;26.20;23.15;;;;;;;21.08;100.00;100726.16;5042649;28;20478;-64
2023/08/25 04:52:55;;;;;;;25.73;22.92;;;;;;;21.08;100.00;100717.34;5014490;28;20085;-64
2023/08/25 04:55:21;;;;;;;25.40;22.75;;;;;;;21.04;100.00;100724.16;5012165;28;20037;-64
2023/08/25 04:57:47;;;;;;;27.83;22.98;;;;;;;21.05;100.00;100723.09;5034036;28;20089;-64
2023/08/25 05:00:14;;;;;;;28.33;24.15;;;;;;;21.06;100.00;100720.22;5034239;28;20053;-65
2023/08/25 05:02:41;;;;;;;30.25;24.55;;;;;;;21.07;100.00;100718.34;5032954;28;20052;-65
2023/08/25 05:05:11;;;;;;;29.15;24.17;;;;;;;21.08;100.00;100715.47;5024810;28;20164;-64
2023/08/25 05:07:39;;;;;;;27.30;24.13;;;;;;;21.11;100.00;100716.88;5026030;28;20063;-64
2023/08/25 05:10:06;;;;;;;28.17;23.50;;;;;;;21.11;100.00;100719.56;5033121;28;20045;-65
2023/08/25 05:12:32;;;;;;;26.10;22.42;;;;;;;21.10;100.00;100723.28;5025596;28;20127;-64
2023/08/25 05:14:58;;;;;;;26.90;23.98;;;;;;;21.11;100.00;100731.06;5023619;28;20526;-64
2023/08/25 05:17:25;;;;;;;27.00;22.55;;;;;;;21.15;100.00;100720.78;5037996;28;20098;-64
2023/08/25 05:19:55;;;;;;;30.67;23.40;;;;;;;21.13;100.00;100722.84;5034010;28;20334;-65
2023/08/25 05:22:21;;;;;;;33.50;24.30;;;;;;;21.14;100.00;100717.28;5032043;28;20049;-65
2023/08/25 05:24:48;;;;;;;28.77;23.70;;;;;;;21.18;100.00;100714.19;5033526;28;20057;-64
2023/08/25 05:27:14;;;;;;;29.05;24.55;;;;;;;21.21;100.00;100713.72;5021517;28;20061;-65
2023/08/25 05:29:41;;;;;;;27.45;24.33;;;;;;;21.20;100.00;100712.09;5031766;28;20053;-64
2023/08/25 05:32:07;;;;;;;27.15;24.25;;;;;;;21.23;100.00;100716.97;5021075;28;20051;-65
2023/08/25 05:34:34;;;;;;;26.92;23.45;;;;;;;21.26;100.00;100722.69;5020636;28;20085;-64
2023/08/25 05:37:01;;;;;;;25.90;23.00;;;;;;;21.24;100.00;100718.63;5029673;28;20552;-65
2023/08/25 05:39:27;;;;;;;23.92;21.42;;;;;;;21.24;100.00;100713.28;5043009;28;20052;-64
2023/08/25 05:41:54;;;;;;;27.90;22.98;;;;;;;21.26;100.00;100709.38;5036296;28;20132;-64
2023/08/25 05:44:20;;;;;;;26.52;23.60;;;;;;;21.28;100.00;100707.28;5036746;28;20056;-64
2023/08/25 05:46:47;;;;;;;23.27;19.55;;;;;;;21.33;100.00;100698.66;5042119;28;20085;-65
2023/08/25 05:49:14;;;;;;;27.47;23.50;;;;;;;21.38;100.00;100697.97;5026958;28;20052;-65
2023/08/25 05:51:41;;;;;;;28.75;22.70;;;;;;;21.40;100.00;100690.56;5039251;28;20505;-65
2023/08/25 05:54:07;;;;;;;29.13;23.38;;;;;;;21.43;100.00;100700.81;5029859;28;20387;-64
2023/08/25 05:56:33;;;;;;;28.77;22.92;;;;;;;21.43;100.00;100695.47;5030125;28;20136;-65
2023/08/25 05:59:00;;;;;;;27.17;23.45;;;;;;;21.47;100.00;100688.69;5037259;28;20057;-65
2023/08/25 06:01:27;;;;;;;23.58;21.02;;;;;;;21.49;100.00;100691.94;5031912;28;20041;-65
2023/08/25 06:03:55;;;;;;;27.95;23.73;;;;;;;21.53;100.00;100696.59;5039458;28;20049;-66
2023/08/25 06:06:22;;;;;;;27.92;22.55;;;;;;;21.56;100.00;100699.88;5022359;28;20072;-65
2023/08/25 06:08:49;;;;;;;26.23;22.37;;;;;;;21.60;100.00;100687.72;5044241;28;20088;-65
2023/08/25 06:11:15;;;;;;;28.23;22.80;;;;;;;21.60;100.00;100696.56;5044607;28;20688;-65
2023/08/25 06:13:42;;;;;;;25.60;22.65;;;;;;;21.66;100.00;100692.16;5024678;28;20085;-64
2023/08/25 06:16:09;;;;;;;26.83;22.02;;;;;;;21.65;100.00;100683.34;5023059;28;20651;-63
2023/08/25 06:18:36;;;;;;;23.50;20.88;;;;;;;21.64;100.00;100681.72;5028710;28;20140;-63
2023/08/25 06:21:02;;;;;;;26.05;22.80;;;;;;;21.68;100.00;100693.59;5036190;28;20084;-63
2023/08/25 06:23:29;;;;;;;27.55;22.75;;;;;;;21.69;100.00;100700.53;5034997;28;20053;-63
2023/08/25 06:25:55;;;;;;;29.05;23.08;;;;;;;21.67;100.00;100691.94;5038356;28;20501;-64
2023/08/25 06:28:22;;;;;;;29.60;22.23;;;;;;;21.68;100.00;100692.78;5032890;28;20057;-64
2023/08/25 06:30:49;;;;;;;27.92;22.60;;;;;;;21.66;100.00;100690.31;5018694;28;20084;-64
2023/08/25 06:33:18;;;;;;;25.92;22.98;;;;;;;21.65;100.00;100696.69;5020537;28;20064;-64
2023/08/25 06:35:44;;;;;;;27.85;22.35;;;;;;;21.62;100.00;100689.13;5038584;28;20428;-64
2023/08/25 06:38:11;;;;;;;30.52;23.35;;;;;;;21.68;100.00;100703.44;5043993;28;20049;-65
2023/08/25 06:40:37;;;;;;;26.60;23.33;;;;;;;21.69;100.00;100707.72;5041899;28;20227;-64
2023/08/25 06:43:04;;;;;;;26.77;23.13;;;;;;;21.65;100.00;100719.91;5045332;28;20044;-65
2023/08/25 06:45:30;;;;;;;31.10;24.13;;;;;;;21.55;100.00;100728.41;5038284;28;20041;-64
2023/08/25 06:47:57;;;;;;;27.92;22.45;;;;;;;21.44;100.00;100715.78;5034487;28;20060;-63
2023/08/25 06:50:25;;;;;;;28.20;23.48;;;;;;;21.41;100.00;100724.22;5041957;28;20143;-63
2023/08/25 06:52:51;;;;;;;26.27;21.52;;;;;;;21.39;100.00;100707.63;5043642;28;20545;-63
2023/08/25 06:55:18;;;;;;;22.48;19.73;;;;;;;21.45;100.00;100704.09;5042828;28;20144;-63
2023/08/25 06:57:48;;;;;;;28.52;22.75;;;;;;;21.50;100.00;100706.91;5017420;28;20139;-64
2023/08/25 07:00:17;;;;;;;23.08;19.85;;;;;;;21.50;100.00;100704.22;5026316;28;20628;-63
2023/08/25 07:02:44;;;;;;;23.60;19.98;;;;;;;21.53;100.00;100691.28;5043820;28;20044;-63
2023/08/25 07:05:13;;;;;;;28.33;22.13;;;;;;;21.58;100.00;100703.97;5033587;28;20045;-63
2023/08/25 07:07:39;;;;;;;28.30;21.90;;;;;;;21.52;100.00;100710.16;5039749;28;20071;-63
2023/08/25 07:10:07;;;;;;;27.50;21.25;;;;;;;21.61;100.00;100705.38;5036510;28;20045;-64
2023/08/25 07:12:33;;;;;;;27.77;21.73;;;;;;;21.52;100.00;100694.16;5038214;28;20059;-63
2023/08/25 07:14:59;;;;;;;28.60;24.45;;;;;;;21.58;100.00;100685.28;5028791;28;20127;-64
2023/08/25 07:17:26;;;;;;;26.92;22.45;;;;;;;21.59;100.00;100680.75;5039055;28;20091;-63
2023/08/25 07:19:53;;;;;;;28.70;23.95;;;;;;;21.59;100.00;100686.09;5040218;28;20055;-64
2023/08/25 07:22:19;;;;;;;25.05;20.95;;;;;;;21.62;100.00;100683.78;5035201;28;20478;-64
2023/08/25 07:24:47;;;;;;;30.05;22.75;;;;;;;21.65;100.00;100666.50;5039865;28;20085;-63
2023/08/25 07:27:17;;;;;;;30.15;23.00;;;;;;;21.67;100.00;100651.91;5025277;28;20068;-64
2023/08/25 07:29:43;;;;;;;28.35;23.02;;;;;;;21.70;100.00;100658.66;5036797;28;20151;-64
2023/08/25 07:32:10;;;;;;;28.35;24.40;;;;;;;21.68;100.00;100663.41;5037672;28;20048;-63
2023/08/25 07:34:36;;;;;;;29.40;23.13;;;;;;;21.70;100.00;100669.34;5034097;28;20057;-64
2023/08/25 07:37:03;;;;;;;26.67;18.85;;;;;;;21.71;100.00;100671.75;5042545;28;20434;-64
2023/08/25 07:39:30;;;;;;;25.27;21.48;;;;;;;21.73;100.00;100653.66;5031359;28;20088;-63
2023/08/25 07:41:56;;;;;;;26.10;23.10;;;;;;;21.73;100.00;100655.53;5044494;28;20094;-64
2023/08/25 07:44:22;;;;;;;29.58;23.70;;;;;;;21.76;100.00;100640.91;5037155;28;20091;-64
2023/08/25 07:46:49;;;;;;;28.25;23.02;;;;;;;21.79;100.00;100643.13;5040457;28;20072;-64
2023/08/25 07:49:15;;;;;;;28.85;25.75;;;;;;;21.76;100.00;100667.59;5037463;28;20072;-64
2023/08/25 07:51:42;;;;;;;29.02;23.17;;;;;;;21.72;100.00;100678.75;5041019;28;20475;-64
2023/08/25 07:54:09;;;;;;;23.00;17.10;;;;;;;21.75;100.00;100657.97;5039461;28;20607;-64
2023/08/25 07:56:35;;;;;;;24.52;21.83;;;;;;;21.76;100.00;100652.44;5029918;28;20052;-64
2023/08/25 07:59:03;;;;;;;28.92;23.10;;;;;;;21.80;100.00;100650.94;5041144;28;20076;-64
2023/08/25 08:01:30;;;;;;;29.17;22.77;;;;;;;21.82;100.00;100666.72;5034056;28;20063;-65
2023/08/25 08:03:57;;;;;;;24.55;20.25;;;;;;;21.84;100.00;100670.78;5043444;28;20060;-63
2023/08/25 08:06:23;;;;;;;30.65;24.08;;;;;;;21.80;100.00;100660.81;5043567;28;20347;-64
2023/08/25 08:08:50;;;;;;;24.77;22.17;;;;;;;21.83;100.00;100655.81;5034081;28;20053;-63
2023/08/25 08:11:17;;;;;;;26.25;23.17;;;;;;;21.82;100.00;100654.19;5041523;28;20048;-64
2023/08/25 08:13:44;;;;;;;29.90;24.67;;;;;;;21.84;100.00;100648.63;5038372;28;20048;-64
2023/08/25 08:16:11;;;;;;;24.92;21.13;;;;;;;21.83;100.00;100655.00;5043358;28;20598;-64
2023/08/25 08:18:37;;;;;;;30.02;23.52;;;;;;;21.87;100.00;100654.31;5035302;28;20051;-64
2023/08/25 08:21:04;;;;;;;23.83;18.77;;;;;;;21.90;100.00;100667.22;5036871;28;20130;-65
2023/08/25 08:23:30;;;;;;;32.83;26.13;;;;;;;21.86;100.00;100686.59;5030938;28;20485;-63
2023/08/25 08:25:58;;;;;;;28.40;24.15;;;;;;;21.69;100.00;100694.38;5037102;28;20076;-64
2023/08/25 08:28:25;;;;;;;35.08;27.75;;;;;;;21.57;100.00;100717.53;5043976;28;20049;-64
2023/08/25 08:30:51;;;;;;;40.50;28.77;;;;;;;21.46;100.00;100733.25;5036504;28;20055;-64
2023/08/25 08:33:18;;;;;;;31.23;25.52;;;;;;;21.25;100.00;100749.63;5043331;28;20055;-64
2023/08/25 08:35:44;;;;;;;33.90;27.73;;;;;;;21.15;100.00;100742.13;5037351;28;20048;-65
2023/08/25 08:38:11;;;;;;;36.63;26.95;;;;;;;21.12;100.00;100734.53;5037760;28;20102;-64
2023/08/25 08:40:37;;;;;;;32.97;27.90;;;;;;;21.08;100.00;100746.69;5039552;28;20124;-64
2023/08/25 08:43:07;;;;;;;31.00;25.45;;;;;;;21.14;100.00;100751.94;5038113;28;20289;-64
2023/08/25 08:45:38;;;;;;;36.40;30.30;;;;;;;21.05;100.00;100747.09;5040748;28;20041;-64
2023/08/25 08:48:06;;;;;;;31.67;25.17;;;;;;;21.09;100.00;100742.97;5030513;28;20924;-64
2023/08/25 08:50:33;;;;;;;;;;;;;;;21.05;100.00;100742.59;5034049;28;20053;-64
2023/08/25 08:53:00;;;;;;;31.40;25.85;;;;;;;21.01;100.00;100738.75;5033555;28;20031;-63
2023/08/25 08:55:27;;;;;;;27.15;21.80;;;;;;;20.90;100.00;100734.91;5042994;28;20181;-64
2023/08/25 08:57:54;;;;;;;24.95;22.17;;;;;;;20.73;100.00;100745.28;5038882;28;20072;-63
2023/08/25 09:00:21;;;;;;;24.97;19.47;;;;;;;20.66;100.00;100736.53;5036269;28;20247;-64
2023/08/25 09:02:53;;;;;;;25.05;20.85;;;;;;;20.80;100.00;100725.78;5036814;28;20090;-64
2023/08/25 09:05:23;;;;;;;21.50;18.80;;;;;;;20.83;100.00;100714.66;5040556;28;20121;-64
2023/08/25 09:07:58;;;;;;;21.77;17.98;;;;;;;20.87;100.00;100715.88;5039078;28;20151;-64
2023/08/25 09:10:25;;;;;;;22.00;17.45;;;;;;;20.95;100.00;100707.59;5034704;28;21607;-64
2023/08/25 09:12:52;;;;;;;22.33;18.02;;;;;;;20.93;100.00;100699.84;5043104;28;20402;-64
2023/08/25 09:15:27;;;;;;;22.58;18.38;;;;;;;20.89;100.00;100708.47;5036080;28;20594;-64
2023/08/25 09:18:03;;;;;;;19.48;17.02;;;;;;;20.81;100.00;100714.06;5032802;28;20064;-63
2023/08/25 09:20:33;;;;;;;19.52;16.92;;;;;;;20.71;100.00;100720.69;5041029;28;20053;-64
2023/08/25 09:23:00;;;;;;;18.48;15.75;;;;;;;20.64;100.00;100709.28;5031508;28;20482;-65
2023/08/25 09:25:27;;;;;;;17.20;15.30;;;;;;;20.53;100.00;100720.59;5039074;28;20160;-64
2023/08/25 09:27:58;;;;;;;16.80;13.90;;;;;;;20.51;100.00;100725.31;5033339;28;20531;-66
2023/08/25 09:30:35;;;;;;;16.85;13.93;;;;;;;20.57;100.00;100720.97;5036306;28;21161;-64
2023/08/25 09:33:07;;;;;;;15.32;13.60;;;;;;;20.51;100.00;100719.97;5032041;28;20452;-65
2023/08/25 09:35:34;;;;;;;17.27;13.82;;;;;;;20.58;100.00;100735.91;5039733;28;20065;-65
2023/08/25 09:38:02;;;;;;;16.08;13.80;;;;;;;20.45;100.00;100737.63;5036614;28;20549;-65
2023/08/25 09:40:29;;;;;;;14.07;12.20;;;;;;;20.48;100.00;100739.06;5040598;28;20053;-65
2023/08/25 09:42:58;;;;;;;16.33;12.57;;;;;;;20.38;100.00;100736.03;5030757;28;20045;-65
2023/08/25 09:45:28;;;;;;;13.00;10.95;;;;;;;20.45;100.00;100726.97;5036960;28;20063;-65
2023/08/25 09:48:11;;;;;;;10.77;9.60;;;;;;;20.58;100.00;100730.59;5038238;28;20464;-64
2023/08/25 09:50:39;;;;;;;13.95;10.75;;;;;;;20.55;100.00;100734.50;5016470;28;20158;-66
2023/08/25 09:53:07;;;;;;;12.45;10.80;;;;;;;20.63;100.00;100734.28;5038504;28;20547;-65
2023/08/25 09:55:38;;;;;;;12.23;9.07;;;;;;;20.67;100.00;100730.16;5029302;28;20155;-65
2023/08/25 09:58:05;;;;;;;13.15;10.45;;;;;;;20.75;100.00;100737.06;5034755;28;20053;-65
2023/08/25 10:00:37;;;;;;;12.98;10.07;;;;;;;20.76;100.00;100737.88;5038753;28;20124;-65
2023/08/25 10:03:08;;;;;;;12.27;8.63;;;;;;;20.91;100.00;100722.38;5037371;28;20095;-65
2023/08/25 10:05:37;;;;;;;16.38;12.00;;;;;;;20.99;100.00;100708.78;5038281;28;20135;-65
2023/08/25 10:08:07;;;;;;;12.43;10.57;;;;;;;21.06;100.00;100709.56;5036050;28;20387;-65
2023/08/25 10:10:35;;;;;;;9.48;8.27;;;;;;;21.05;100.00;100701.75;5034475;28;20699;-65
2023/08/25 10:13:06;;;;;;;10.00;8.98;;;;;;;20.96;100.00;100709.25;5031355;28;20076;-66
2023/08/25 10:15:33;;;;;;;10.00;8.32;;;;;;;21.01;100.00;100716.56;5039973;28;20417;-66
2023/08/25 10:18:02;;;;;;;11.60;9.02;;;;;;;20.86;100.00;100738.25;5041454;28;20048;-65
2023/08/25 10:20:29;;;;;;;31.58;10.95;;;;;;;20.57;100.00;100745.78;5033467;28;20060;-69
2023/08/25 10:22:56;;;;;;;42.13;12.13;;;;;;;20.54;100.00;100707.06;5037696;28;20079;-69
2023/08/25 10:25:28;;;;;;;9.93;7.40;;;;;;;20.48;100.00;100673.28;5025678;28;20128;-69
2023/08/25 10:27:59;;;;;;;9.52;6.97;;;;;;;20.70;100.00;100683.63;5038577;28;20214;-69
2023/08/25 10:30:27;;;;;;;9.40;6.82;;;;;;;20.76;100.00;100701.41;5016106;28;20568;-68
2023/08/25 10:33:00;;;;;;;8.45;7.55;;;;;;;20.99;100.00;100699.97;5039553;28;20126;-68
2023/08/25 10:35:47;;;;;;;9.63;7.95;;;;;;;21.06;100.00;100695.41;5034845;28;20422;-68
2023/08/25 10:38:19;;;;;;;6.20;4.50;;;;;;;21.35;100.00;100715.25;5033249;28;20058;-67
2023/08/25 10:40:49;;;;;;;6.80;5.70;;;;;;;21.64;100.00;100718.25;5033400;28;20044;-66
2023/08/25 10:43:37;;;;;;;6.90;5.80;;;;;;;21.77;100.00;100714.63;5037466;28;20059;-67
2023/08/25 10:46:07;;;;;;;;;;;;;;;21.72;100.00;100718.78;5037402;28;20060;-65
2023/08/25 10:48:34;;;;;;;7.13;4.60;;;;;;;21.90;100.00;100725.16;5035848;28;20374;-65
2023/08/25 10:51:11;;;;;;;6.88;5.75;;;;;;;22.28;100.00;100722.22;5040446;28;20582;-66
2023/08/25 10:53:42;;;;;;;4.50;4.03;;;;;;;22.42;100.00;100703.34;5032945;28;20077;-66
2023/08/25 10:56:18;;;;;;;7.22;5.93;;;;;;;22.63;100.00;100694.78;5045424;28;20085;-65
2023/08/25 10:59:10;;;;;;;6.78;5.63;;;;;;;22.70;100.00;100692.84;5030937;28;20132;-66
2023/08/25 11:01:37;;;;;;;9.55;7.45;;;;;;;22.61;100.00;100704.09;5036112;28;20044;-67
2023/08/25 11:04:13;;;;;;;9.45;7.88;;;;;;;22.46;100.00;100705.34;5037573;28;20549;-67
2023/08/25 11:06:47;;;;;;;9.50;8.45;;;;;;;22.44;100.00;100706.59;5042095;28;20566;-67
2023/08/25 11:09:22;;;;;;;9.02;8.13;;;;;;;22.29;100.00;100697.16;5036556;28;20125;-67